createdAt,value
2022-10-06T00:04:46.781Z,97874.28
2022-10-06T00:09:50.207Z,97884.22
2022-10-06T00:14:53.752Z,97884.94
2022-10-06T00:19:58.613Z,97883.94
2022-10-06T00:25:02.279Z,97889.13
2022-10-06T00:30:07.467Z,97894.19
2022-10-06T00:35:12.133Z,97900.53
2022-10-06T00:40:15.640Z,97900.22
2022-10-06T00:45:22.069Z,97899.38
2022-10-06T00:50:27.625Z,97902.59
2022-10-06T00:55:31.084Z,97920.41
2022-10-06T01:00:35.165Z,97913.38
2022-10-06T01:05:46.701Z,97906.66
2022-10-06T01:10:50.218Z,97903.84
2022-10-06T01:15:57.951Z,97899.91
2022-10-06T01:21:10.951Z,97906.34
2022-10-06T01:26:19.726Z,97917.72
2022-10-06T01:31:23.734Z,97936.22
2022-10-06T01:36:27.317Z,97933.72
2022-10-06T01:41:33.966Z,97936.53
2022-10-06T01:46:38.502Z,97945.09
2022-10-06T01:51:42.728Z,97949.56
2022-10-06T01:56:47.613Z,97959.72
2022-10-06T02:01:51.242Z,97964.94
2022-10-06T02:06:55.684Z,97964.66
2022-10-06T02:12:00.778Z,97962.56
2022-10-06T02:17:05.215Z,97964.78
2022-10-06T02:22:09.377Z,97967.19
2022-10-06T02:27:14.704Z,97974.63
2022-10-06T02:32:18.694Z,97984.13
2022-10-06T02:37:22.302Z,97990.84
2022-10-06T02:42:27.260Z,98003.22
2022-10-06T02:47:32.682Z,98005.03
2022-10-06T02:52:41.023Z,98013.78
2022-10-06T02:57:45.781Z,98023.00
2022-10-06T03:02:49.454Z,98045.22
2022-10-06T03:07:53.219Z,98042.28
2022-10-06T03:12:58.035Z,98038.47
2022-10-06T03:18:01.476Z,98048.88
2022-10-06T03:23:04.899Z,98052.25
2022-10-06T03:28:09.845Z,98062.38
2022-10-06T03:33:13.447Z,98064.31
2022-10-06T03:38:16.975Z,98061.94
2022-10-06T03:43:21.765Z,98072.03
2022-10-06T03:48:25.368Z,98084.00
2022-10-06T03:53:30.088Z,98093.28
2022-10-06T03:58:36.803Z,98100.97
2022-10-06T04:03:40.641Z,98125.28
2022-10-06T04:08:46.144Z,98141.94
2022-10-06T04:13:54.616Z,98146.56
2022-10-06T04:19:00.090Z,98142.09
2022-10-06T04:24:05.089Z,98156.28
2022-10-06T04:29:10.439Z,98173.66
2022-10-06T04:34:14.770Z,98180.09
2022-10-06T04:39:20.940Z,98191.44
2022-10-06T04:44:25.825Z,98202.34
2022-10-06T04:49:31.787Z,98206.72
2022-10-06T04:54:35.494Z,98217.94
2022-10-06T05:00:05.442Z,98224.47
2022-10-06T05:05:11.798Z,98238.72
2022-10-06T05:10:15.648Z,98262.38
2022-10-06T05:15:21.098Z,98280.38
2022-10-06T05:20:26.036Z,98287.91
2022-10-06T05:25:30.275Z,98293.22
2022-10-06T05:30:35.260Z,98307.63
2022-10-06T05:35:38.957Z,98296.00
2022-10-06T05:40:42.860Z,98307.13
2022-10-06T05:45:59.415Z,98329.78
2022-10-06T05:51:06.054Z,98341.28
2022-10-06T05:56:13.183Z,98342.72
2022-10-06T06:01:21.182Z,98354.22
2022-10-06T06:06:27.707Z,98378.91
2022-10-06T06:11:35.904Z,98386.53
2022-10-06T06:16:42.032Z,98394.50
2022-10-06T06:21:45.887Z,98415.16
2022-10-06T06:26:49.991Z,98437.72
2022-10-06T06:31:55.029Z,98450.38
2022-10-06T06:37:03.612Z,98463.13
2022-10-06T06:42:10.760Z,98459.69
2022-10-06T06:47:27.169Z,98468.97
2022-10-06T06:52:32.591Z,98476.09
2022-10-06T06:57:37.288Z,98492.47
2022-10-06T07:02:42.989Z,98489.56
2022-10-06T07:07:48.107Z,98509.44
2022-10-06T07:12:51.852Z,98522.53
2022-10-06T07:18:13.954Z,98534.94
2022-10-06T07:23:37.623Z,98541.53
2022-10-06T07:28:44.741Z,98550.78
2022-10-06T07:33:52.256Z,98551.75
2022-10-06T07:38:56.487Z,98559.91
2022-10-06T07:44:01.639Z,98565.91
2022-10-06T07:49:11.349Z,98570.81
2022-10-06T07:54:16.025Z,98579.16
2022-10-06T07:59:38.393Z,98592.59
2022-10-06T08:04:43.271Z,98598.91
2022-10-06T08:09:46.759Z,98605.84
2022-10-06T08:14:50.147Z,98611.78
2022-10-06T08:19:55.459Z,98620.91
2022-10-06T08:25:06.194Z,98622.94
2022-10-06T08:30:12.662Z,98630.25
2022-10-06T08:35:17.535Z,98617.44
2022-10-06T08:40:21.311Z,98634.16
2022-10-06T08:45:32.091Z,98631.72
2022-10-06T08:50:52.316Z,98634.19
2022-10-06T08:56:04.610Z,98620.00
2022-10-06T09:01:18.776Z,98635.47
2022-10-06T09:06:42.364Z,98640.63
2022-10-06T09:11:56.085Z,98640.91
2022-10-06T09:17:04.268Z,98641.22
2022-10-06T09:22:17.414Z,98644.28
2022-10-06T09:27:23.173Z,98656.53
2022-10-06T09:32:28.323Z,98669.72
2022-10-06T09:37:53.481Z,98665.22
2022-10-06T09:42:57.285Z,98685.25
2022-10-06T09:48:13.822Z,98678.63
2022-10-06T09:53:18.663Z,98681.84
2022-10-06T09:58:26.696Z,98681.88
2022-10-06T10:03:51.473Z,98693.53
2022-10-06T10:09:25.444Z,98697.03
2022-10-06T10:14:37.407Z,98684.00
2022-10-06T10:19:42.970Z,98684.28
2022-10-06T10:24:57.337Z,98691.78
2022-10-06T10:30:09.332Z,98692.38
2022-10-06T10:35:23.390Z,98694.22
2022-10-06T10:40:32.854Z,98703.69
2022-10-06T10:45:41.283Z,98700.44
2022-10-06T10:50:51.246Z,98689.94
2022-10-06T10:55:56.515Z,98691.81
2022-10-06T11:01:06.364Z,98692.28
2022-10-06T11:06:28.613Z,98686.06
2022-10-06T11:11:59.914Z,98687.38
2022-10-06T11:17:12.973Z,98693.50
2022-10-06T11:22:24.759Z,98695.97
2022-10-06T11:27:39.823Z,98694.47
2022-10-06T11:32:58.738Z,98690.22
2022-10-06T11:38:11.912Z,98685.06
2022-10-06T11:43:24.709Z,98684.75
2022-10-06T11:48:30.521Z,98685.00
2022-10-06T11:53:41.624Z,98684.28
2022-10-06T11:59:10.968Z,98694.09
2022-10-06T12:04:19.559Z,98689.16
2022-10-06T12:09:32.777Z,98689.16
2022-10-06T12:20:19.046Z,98691.75
2022-10-06T12:25:29.114Z,98691.94
2022-10-06T12:30:54.380Z,98689.91
2022-10-06T12:36:03.970Z,98684.41
2022-10-06T12:41:11.914Z,98674.25
2022-10-06T12:46:23.142Z,98675.13
2022-10-06T12:56:42.610Z,98665.25
2022-10-06T13:01:48.419Z,98675.31
2022-10-06T13:06:52.091Z,98673.16
2022-10-06T13:11:55.737Z,98664.78
2022-10-06T13:17:03.268Z,98668.50
2022-10-06T13:22:07.263Z,98664.84
2022-10-06T13:27:18.435Z,98663.91
2022-10-06T13:32:26.926Z,98661.78
2022-10-06T13:37:30.664Z,98665.47
2022-10-06T13:42:34.985Z,98656.72
2022-10-06T13:47:40.430Z,98658.22
2022-10-06T13:52:48.951Z,98664.97
2022-10-06T13:58:09.327Z,98668.28
2022-10-06T14:03:24.968Z,98658.53
2022-10-06T14:08:29.026Z,98657.13
2022-10-06T14:13:39.380Z,98662.22
2022-10-06T14:18:46.878Z,98660.13
2022-10-06T14:23:52.410Z,98663.47
2022-10-06T14:29:16.617Z,98663.81
2022-10-06T14:34:23.221Z,98658.44
2022-10-06T14:39:28.432Z,98662.25
2022-10-06T14:44:32.155Z,98663.50
2022-10-06T14:49:38.068Z,98658.72
2022-10-06T14:54:42.779Z,98660.25
2022-10-06T14:59:46.215Z,98651.88
2022-10-06T15:04:51.252Z,98653.88
2022-10-06T15:09:54.607Z,98661.22
2022-10-06T15:14:58.012Z,98668.22
2022-10-06T15:20:02.855Z,98668.13
2022-10-06T15:25:07.097Z,98665.72
2022-10-06T15:30:11.672Z,98666.81
2022-10-06T15:35:16.608Z,98675.03
2022-10-06T15:40:20.010Z,98680.25
2022-10-06T15:45:23.548Z,98674.16
2022-10-06T15:50:29.154Z,98676.56
2022-10-06T15:55:32.939Z,98682.28
2022-10-06T16:00:36.450Z,98679.34
2022-10-06T16:05:51.261Z,98684.63
2022-10-06T16:10:56.126Z,98680.19
2022-10-06T16:15:59.731Z,98676.50
2022-10-06T16:21:04.579Z,98680.72
2022-10-06T16:26:08.091Z,98692.25
2022-10-06T16:31:11.815Z,98690.31
2022-10-06T16:36:18.156Z,98693.59
2022-10-06T16:41:22.981Z,98706.47
2022-10-06T16:46:29.130Z,98701.41
2022-10-06T16:51:36.042Z,98706.75
2022-10-06T16:56:41.337Z,98719.78
2022-10-06T17:01:45.948Z,98721.72
2022-10-06T17:06:52.938Z,98723.25
2022-10-06T17:11:58.322Z,98731.06
2022-10-06T17:17:02.245Z,98735.69
2022-10-06T17:22:07.680Z,98729.16
2022-10-06T17:27:11.197Z,98740.09
2022-10-06T17:32:15.424Z,98742.97
2022-10-06T17:37:21.720Z,98742.72
2022-10-06T17:42:25.053Z,98745.00
2022-10-06T17:47:29.678Z,98748.66
2022-10-06T17:52:35.564Z,98749.34
2022-10-06T17:57:40.041Z,98754.72
2022-10-06T18:02:43.849Z,98759.19
2022-10-06T18:07:49.335Z,98756.84
2022-10-06T18:12:52.978Z,98764.25
2022-10-06T18:17:56.927Z,98766.09
2022-10-06T18:23:06.101Z,98765.41
2022-10-06T18:28:10.469Z,98771.03
2022-10-06T18:38:41.639Z,98765.78
2022-10-06T18:43:48.349Z,98771.69
2022-10-06T18:48:58.849Z,98772.84
2022-10-06T18:54:06.597Z,98769.97
2022-10-06T18:59:13.915Z,98771.44
2022-10-06T19:04:20.827Z,98773.91
2022-10-06T19:09:27.633Z,98768.09
2022-10-06T19:14:32.906Z,98767.31
2022-10-06T19:19:36.730Z,98774.47
2022-10-06T19:24:43.357Z,98776.13
2022-10-06T19:29:50.994Z,98769.78
2022-10-06T19:34:57.965Z,98777.66
2022-10-06T19:40:03.029Z,98764.97
2022-10-06T19:45:07.809Z,98775.50
2022-10-06T19:50:12.739Z,98780.78
2022-10-06T19:55:23.496Z,98778.03
2022-10-06T20:00:27.180Z,98781.19
2022-10-06T20:05:30.691Z,98784.56
2022-10-06T20:10:35.794Z,98786.25
2022-10-06T20:15:39.456Z,98793.34
2022-10-06T20:20:44.503Z,98791.22
2022-10-06T20:25:50.050Z,98789.66
2022-10-06T20:30:54.064Z,98799.28
2022-10-06T20:36:01.149Z,98800.31
2022-10-06T20:41:07.926Z,98803.16
2022-10-06T20:46:15.197Z,98799.28
2022-10-06T20:51:24.172Z,98802.69
2022-10-06T20:56:34.711Z,98797.63
2022-10-06T21:01:40.401Z,98791.56
2022-10-06T21:06:45.510Z,98797.88
2022-10-06T21:11:50.317Z,98793.63
2022-10-06T21:16:54.509Z,98784.28
2022-10-06T21:21:58.157Z,98781.06
2022-10-06T21:27:03.281Z,98777.78
2022-10-06T21:32:06.750Z,98774.22
2022-10-06T21:37:10.559Z,98775.81
2022-10-06T21:42:15.663Z,98776.13
2022-10-06T21:47:19.356Z,98765.28
2022-10-06T21:52:23.303Z,98758.81
2022-10-06T21:57:28.914Z,98757.81
2022-10-06T22:02:32.876Z,98758.81
2022-10-06T22:07:36.480Z,98753.50
2022-10-06T22:12:42.157Z,98751.19
2022-10-06T22:17:47.519Z,98749.28
2022-10-06T22:22:52.788Z,98753.38
2022-10-06T22:27:57.749Z,98742.06
2022-10-06T22:33:01.244Z,98738.16
2022-10-06T22:38:04.704Z,98743.81
2022-10-06T22:43:09.524Z,98741.19
2022-10-06T22:48:13.024Z,98745.59
2022-10-06T22:53:16.548Z,98734.78
2022-10-06T22:58:21.326Z,98727.84
2022-10-06T23:03:27.050Z,98720.00
2022-10-06T23:08:35.098Z,98716.00
2022-10-06T23:13:40.660Z,98705.88
2022-10-06T23:18:45.488Z,98705.66
2022-10-06T23:23:50.223Z,98701.22
2022-10-06T23:28:56.901Z,98700.47
2022-10-06T23:34:00.398Z,98697.25
2022-10-06T23:39:03.871Z,98698.41
2022-10-06T23:44:08.711Z,98697.69
2022-10-06T23:49:12.325Z,98692.03
2022-10-06T23:54:15.731Z,98694.22
2022-10-06T23:59:21.299Z,98690.00
